createdAt,value
2022-11-21T00:01:59.358Z,18.55
2022-11-21T00:04:27.691Z,19.33
2022-11-21T00:06:55.453Z,17.50
2022-11-21T00:09:23.400Z,17.13
2022-11-21T00:11:52.709Z,19.25
2022-11-21T00:14:20.584Z,18.48
2022-11-21T00:16:49.500Z,18.33
2022-11-21T00:19:19.944Z,16.05
2022-11-21T00:21:47.402Z,18.48
2022-11-21T00:24:15.314Z,18.42
2022-11-21T00:26:42.799Z,18.08
2022-11-21T00:29:11.000Z,15.63
2022-11-21T00:31:38.532Z,18.23
2022-11-21T00:34:06.404Z,18.23
2022-11-21T00:36:33.892Z,17.38
2022-11-21T00:39:01.699Z,16.98
2022-11-21T00:41:29.211Z,18.08
2022-11-21T00:43:57.060Z,18.05
2022-11-21T00:46:24.526Z,17.60
2022-11-21T00:48:52.313Z,17.40
2022-11-21T00:51:19.824Z,18.92
2022-11-21T00:53:47.793Z,18.70
2022-11-21T00:56:15.252Z,17.25
2022-11-21T00:58:43.092Z,17.52
2022-11-21T01:01:15.287Z,17.88
2022-11-21T01:03:43.491Z,16.90
2022-11-21T01:06:14.398Z,17.45
2022-11-21T01:08:45.180Z,17.85
2022-11-21T01:11:16.754Z,15.77
2022-11-21T01:13:45.788Z,17.05
2022-11-21T01:16:18.852Z,16.60
2022-11-21T01:18:47.409Z,17.77
2022-11-21T01:21:17.733Z,17.30
2022-11-21T01:23:46.110Z,16.58
2022-11-21T01:26:23.429Z,17.02
2022-11-21T01:28:51.926Z,17.42
2022-11-21T01:31:29.249Z,16.75
2022-11-21T01:34:00.371Z,18.67
2022-11-21T01:36:31.419Z,19.20
2022-11-21T01:39:02.593Z,18.10
2022-11-21T01:41:42.935Z,19.25
2022-11-21T01:44:20.283Z,19.02
2022-11-21T01:46:49.639Z,20.63
2022-11-21T01:49:29.491Z,19.20
2022-11-21T01:52:25.566Z,19.35
2022-11-21T01:55:09.986Z,19.70
2022-11-21T01:57:48.523Z,18.00
2022-11-21T02:00:27.464Z,15.52
2022-11-21T02:03:02.251Z,19.60
2022-11-21T02:05:35.382Z,19.98
2022-11-21T02:08:09.981Z,21.15
2022-11-21T02:10:42.513Z,20.75
2022-11-21T02:13:10.167Z,19.20
2022-11-21T02:15:38.106Z,20.52
2022-11-21T02:18:09.716Z,21.63
2022-11-21T02:20:40.248Z,21.08
2022-11-21T02:23:33.968Z,19.55
2022-11-21T02:26:01.885Z,20.42
2022-11-21T02:28:29.672Z,20.70
2022-11-21T02:30:57.462Z,20.60
2022-11-21T02:33:24.911Z,20.33
2022-11-21T02:36:01.041Z,21.42
2022-11-21T02:38:36.819Z,21.23
2022-11-21T02:41:14.912Z,20.55
2022-11-21T02:43:54.844Z,20.17
2022-11-21T02:46:22.735Z,15.60
2022-11-21T02:48:50.207Z,19.45
2022-11-21T02:51:18.034Z,21.75
2022-11-21T02:53:46.330Z,21.33
2022-11-21T02:56:14.215Z,21.03
2022-11-21T02:58:42.079Z,22.23
2022-11-21T03:01:09.954Z,20.83
2022-11-21T03:03:37.502Z,23.33
2022-11-21T03:06:05.396Z,25.17
2022-11-21T03:08:32.953Z,22.48
2022-11-21T03:11:00.727Z,23.48
2022-11-21T03:13:28.201Z,23.25
2022-11-21T03:15:56.342Z,24.35
2022-11-21T03:18:23.841Z,23.92
2022-11-21T03:20:51.678Z,21.98
2022-11-21T03:23:19.245Z,23.90
2022-11-21T03:25:47.045Z,24.95
2022-11-21T03:28:14.601Z,24.08
2022-11-21T03:30:42.578Z,25.15
2022-11-21T03:33:10.043Z,23.85
2022-11-21T03:35:37.776Z,25.08
2022-11-21T03:38:05.306Z,24.48
2022-11-21T03:40:33.395Z,24.02
2022-11-21T03:43:06.305Z,24.40
2022-11-21T03:45:34.340Z,23.67
2022-11-21T03:48:01.912Z,25.58
2022-11-21T03:50:29.653Z,25.55
2022-11-21T03:52:57.077Z,24.75
2022-11-21T03:55:24.898Z,25.02
2022-11-21T03:57:52.389Z,24.33
2022-11-21T04:00:20.273Z,24.13
2022-11-21T04:03:06.444Z,23.73
2022-11-21T04:05:34.279Z,24.77
2022-11-21T04:08:01.756Z,28.65
2022-11-21T04:10:29.538Z,27.98
2022-11-21T04:12:57.063Z,24.50
2022-11-21T04:15:24.824Z,27.38
2022-11-21T04:17:53.126Z,26.25
2022-11-21T04:20:20.942Z,26.57
2022-11-21T04:22:49.626Z,25.80
2022-11-21T04:25:17.567Z,27.77
2022-11-21T04:27:45.060Z,27.02
2022-11-21T04:30:16.140Z,28.20
2022-11-21T04:32:44.341Z,27.48
2022-11-21T04:35:12.063Z,27.90
2022-11-21T04:37:39.842Z,26.85
2022-11-21T04:40:08.377Z,28.15
2022-11-21T04:42:35.848Z,29.88
2022-11-21T04:45:04.429Z,27.75
2022-11-21T04:47:31.886Z,27.08
2022-11-21T04:49:59.700Z,30.77
2022-11-21T04:52:27.253Z,28.17
2022-11-21T04:54:55.121Z,27.77
2022-11-21T04:57:23.345Z,28.27
2022-11-21T04:59:51.166Z,25.77
2022-11-21T05:02:18.730Z,27.15
2022-11-21T05:04:46.630Z,26.63
2022-11-21T05:07:14.931Z,28.90
2022-11-21T05:09:42.791Z,26.40
2022-11-21T05:12:29.914Z,26.60
2022-11-21T05:14:57.744Z,27.02
2022-11-21T05:17:25.218Z,26.45
2022-11-21T05:19:53.049Z,28.60
2022-11-21T05:22:20.711Z,27.17
2022-11-21T05:24:48.516Z,25.83
2022-11-21T05:27:15.988Z,26.90
2022-11-21T05:29:43.947Z,25.80
2022-11-21T05:32:11.510Z,27.15
2022-11-21T05:34:39.357Z,20.73
2022-11-21T05:37:07.031Z,28.25
2022-11-21T05:39:34.945Z,24.73
2022-11-21T05:42:03.313Z,24.35
2022-11-21T05:44:31.538Z,25.13
2022-11-21T05:46:59.331Z,24.98
2022-11-21T05:49:27.160Z,24.73
2022-11-21T05:51:55.070Z,24.90
2022-11-21T05:54:22.934Z,22.02
2022-11-21T05:56:50.478Z,24.55
2022-11-21T05:59:18.278Z,24.63
2022-11-21T06:02:04.470Z,24.55
2022-11-21T06:04:32.421Z,24.20
2022-11-21T06:07:00.039Z,24.45
2022-11-21T06:09:28.094Z,25.70
2022-11-21T06:11:55.589Z,25.80
2022-11-21T06:14:23.473Z,27.90
2022-11-21T06:16:51.608Z,27.42
2022-11-21T06:19:19.483Z,28.17
2022-11-21T06:21:46.969Z,29.20
2022-11-21T06:24:19.393Z,26.48
2022-11-21T06:26:49.315Z,27.17
2022-11-21T06:29:17.114Z,28.77
2022-11-21T06:31:44.593Z,27.42
2022-11-21T06:34:12.524Z,28.05
2022-11-21T06:36:39.992Z,25.48
2022-11-21T06:39:07.924Z,26.13
2022-11-21T06:41:35.648Z,28.02
2022-11-21T06:44:03.482Z,25.83
2022-11-21T06:46:30.980Z,27.50
2022-11-21T06:48:58.807Z,27.40
2022-11-21T06:51:26.690Z,25.63
2022-11-21T06:53:57.350Z,26.88
2022-11-21T06:56:26.627Z,26.15
2022-11-21T07:01:23.289Z,26.55
2022-11-21T07:03:51.835Z,27.58
2022-11-21T07:06:19.504Z,27.42
2022-11-21T07:08:52.450Z,27.20
2022-11-21T07:11:27.636Z,26.33
2022-11-21T07:13:56.515Z,22.70
2022-11-21T07:16:26.322Z,23.55
2022-11-21T07:18:54.418Z,26.52
2022-11-21T07:21:21.989Z,27.58
2022-11-21T07:23:49.833Z,25.52
2022-11-21T07:26:17.833Z,24.65
2022-11-21T07:28:45.710Z,25.35
2022-11-21T07:31:14.370Z,26.27
2022-11-21T07:33:46.945Z,26.02
2022-11-21T07:36:14.786Z,26.52
2022-11-21T07:38:42.684Z,25.58
2022-11-21T07:41:10.747Z,25.25
2022-11-21T07:43:38.713Z,25.15
2022-11-21T07:46:06.269Z,25.33
2022-11-21T07:48:33.584Z,30.80
2022-11-21T07:51:05.211Z,29.65
2022-11-21T07:53:32.773Z,33.25
2022-11-21T07:56:00.884Z,31.10
2022-11-21T07:58:28.468Z,28.65
2022-11-21T08:00:56.454Z,28.95
2022-11-21T08:03:25.365Z,26.05
2022-11-21T08:05:53.228Z,26.55
2022-11-21T08:08:20.678Z,30.48
2022-11-21T08:10:48.607Z,28.02
2022-11-21T08:13:16.123Z,26.95
2022-11-21T08:15:44.108Z,30.27
2022-11-21T08:18:19.168Z,27.98
2022-11-21T08:20:47.708Z,26.02
2022-11-21T08:23:16.019Z,24.08
2022-11-21T08:25:44.002Z,23.90
2022-11-21T08:28:12.563Z,22.70
2022-11-21T08:30:41.014Z,24.23
2022-11-21T08:33:08.808Z,27.60
2022-11-21T08:35:40.245Z,24.23
2022-11-21T08:38:08.259Z,25.38
2022-11-21T08:40:36.539Z,26.10
2022-11-21T08:43:09.626Z,26.45
2022-11-21T08:45:39.783Z,26.05
2022-11-21T08:48:13.042Z,25.60
2022-11-21T08:50:41.052Z,24.33
2022-11-21T08:53:08.406Z,24.45
2022-11-21T08:55:36.203Z,22.95
2022-11-21T08:58:03.784Z,21.45
2022-11-21T09:00:31.593Z,22.35
2022-11-21T09:03:03.877Z,21.65
2022-11-21T09:05:33.287Z,21.60
2022-11-21T09:08:00.705Z,23.85
2022-11-21T09:10:29.515Z,23.75
2022-11-21T09:13:00.523Z,18.67
2022-11-21T09:15:48.055Z,22.83
2022-11-21T09:18:15.612Z,22.05
2022-11-21T09:20:47.526Z,22.25
2022-11-21T09:23:17.205Z,21.30
2022-11-21T09:25:45.523Z,20.50
2022-11-21T09:28:14.503Z,21.50
2022-11-21T09:30:43.775Z,22.35
2022-11-21T09:33:14.282Z,21.67
2022-11-21T09:35:42.427Z,20.23
2022-11-21T09:38:10.198Z,22.65
2022-11-21T09:40:47.156Z,21.30
2022-11-21T09:43:29.428Z,22.98
2022-11-21T09:46:17.468Z,21.67
2022-11-21T09:48:58.456Z,21.38
2022-11-21T09:51:31.043Z,20.23
2022-11-21T09:54:03.839Z,22.10
2022-11-21T09:56:38.772Z,21.25
2022-11-21T09:59:32.744Z,21.83
2022-11-21T10:02:00.921Z,20.27
2022-11-21T10:04:29.912Z,20.25
2022-11-21T10:07:17.037Z,20.13
2022-11-21T10:10:22.751Z,19.30
2022-11-21T10:13:36.858Z,18.83
2022-11-21T10:16:26.380Z,18.67
2022-11-21T10:19:12.952Z,20.42
2022-11-21T10:22:05.967Z,19.05
2022-11-21T10:24:33.682Z,18.75
2022-11-21T10:27:16.102Z,18.05
2022-11-21T10:30:16.810Z,16.65
2022-11-21T10:33:20.326Z,16.52
2022-11-21T10:35:57.691Z,17.63
2022-11-21T10:38:30.968Z,16.10
2022-11-21T10:41:24.089Z,16.65
2022-11-21T10:44:43.922Z,15.80
2022-11-21T10:47:29.698Z,15.55
2022-11-21T10:50:40.414Z,16.17
2022-11-21T10:53:37.822Z,17.92
2022-11-21T10:56:14.670Z,16.58
2022-11-21T10:58:46.417Z,16.30
2022-11-21T11:01:30.844Z,15.10
2022-11-21T11:07:13.780Z,16.00
2022-11-21T11:09:46.942Z,15.55
2022-11-21T11:12:50.749Z,15.82
2022-11-21T11:15:28.124Z,15.95
2022-11-21T11:18:08.773Z,12.52
2022-11-21T11:20:45.615Z,16.80
2022-11-21T11:23:25.588Z,14.40
2022-11-21T11:25:58.416Z,14.93
2022-11-21T11:28:34.197Z,15.85
2022-11-21T11:31:02.231Z,20.55
2022-11-21T11:33:36.674Z,18.75
2022-11-21T11:36:15.618Z,15.45
2022-11-21T11:38:58.389Z,12.85
2022-11-21T11:42:06.687Z,14.48
2022-11-21T11:45:33.538Z,13.50
2022-11-21T11:48:10.572Z,15.00
2022-11-21T11:50:50.570Z,13.57
2022-11-21T11:53:26.785Z,12.95
2022-11-21T11:56:01.117Z,13.48
2022-11-21T11:58:43.879Z,13.10
2022-11-21T12:01:29.871Z,15.45
2022-11-21T12:04:30.341Z,13.85
2022-11-21T12:10:20.973Z,13.35
2022-11-21T12:13:03.266Z,13.25
2022-11-21T12:15:52.801Z,15.60
2022-11-21T12:18:24.328Z,13.23
2022-11-21T12:21:10.318Z,13.23
2022-11-21T12:23:48.600Z,12.75
2022-11-21T12:26:40.291Z,14.87
2022-11-21T12:29:35.189Z,15.65
2022-11-21T12:33:00.213Z,13.98
2022-11-21T12:35:37.169Z,14.43
2022-11-21T12:38:44.756Z,13.48
2022-11-21T12:41:54.418Z,16.67
2022-11-21T12:44:49.565Z,16.00
2022-11-21T12:48:29.691Z,16.10
2022-11-21T12:51:55.540Z,17.85
2022-11-21T12:54:52.757Z,19.75
2022-11-21T12:57:26.806Z,19.08
2022-11-21T13:00:15.456Z,18.52
2022-11-21T13:03:15.949Z,17.80
2022-11-21T13:05:49.895Z,15.05
2022-11-21T13:08:29.920Z,15.27
2022-11-21T13:11:48.923Z,14.02
2022-11-21T13:17:19.052Z,14.10
2022-11-21T13:20:06.072Z,14.40
2022-11-21T13:22:36.268Z,11.73
2022-11-21T13:25:29.388Z,12.60
2022-11-21T13:28:19.656Z,19.65
2022-11-21T13:30:52.021Z,15.63
2022-11-21T13:33:37.529Z,17.27
2022-11-21T13:36:12.384Z,15.60
2022-11-21T13:38:52.974Z,21.02
2022-11-21T13:41:54.722Z,25.27
2022-11-21T13:44:31.486Z,28.33
2022-11-21T13:47:27.473Z,16.95
2022-11-21T13:50:19.892Z,16.08
2022-11-21T13:53:22.549Z,17.02
2022-11-21T13:56:28.023Z,22.80
2022-11-21T13:59:21.577Z,25.70
2022-11-21T14:02:03.598Z,16.85
2022-11-21T14:04:54.656Z,14.75
2022-11-21T14:07:33.084Z,13.80
2022-11-21T14:10:24.090Z,15.00
2022-11-21T14:12:55.179Z,14.32
2022-11-21T14:15:36.588Z,12.55
2022-11-21T14:18:04.654Z,12.70
2022-11-21T14:20:49.560Z,13.43
2022-11-21T14:23:21.373Z,11.15
2022-11-21T14:26:00.215Z,11.43
2022-11-21T14:31:04.583Z,11.50
2022-11-21T14:33:35.198Z,11.90
2022-11-21T14:36:27.243Z,12.02
2022-11-21T14:39:34.576Z,11.02
2022-11-21T14:42:01.011Z,10.48
2022-11-21T14:44:31.944Z,11.20
2022-11-21T14:47:26.744Z,11.30
2022-11-21T14:49:59.804Z,11.35
2022-11-21T14:52:33.135Z,10.98
2022-11-21T14:57:53.782Z,10.95
2022-11-21T15:00:57.460Z,11.77
2022-11-21T15:03:23.120Z,11.05
2022-11-21T15:06:05.787Z,10.05
2022-11-21T15:09:52.723Z,12.32
2022-11-21T15:11:44.206Z,12.13
2022-11-21T15:14:58.441Z,10.15
2022-11-21T15:17:26.951Z,10.75
2022-11-21T15:20:12.795Z,11.50
2022-11-21T15:22:42.519Z,10.13
2022-11-21T15:25:24.034Z,10.13
2022-11-21T15:27:53.215Z,12.60
2022-11-21T15:30:39.321Z,10.73
2022-11-21T15:33:21.447Z,11.52
2022-11-21T15:35:56.052Z,12.25
2022-11-21T15:39:03.750Z,11.40
2022-11-21T15:41:35.108Z,12.27
2022-11-21T15:44:02.562Z,13.02
2022-11-21T15:46:41.877Z,12.07
2022-11-21T15:52:09.793Z,12.80
2022-11-21T15:54:48.447Z,13.70
2022-11-21T15:57:10.924Z,13.20
2022-11-21T15:59:46.292Z,15.63
2022-11-21T16:02:15.032Z,14.98
2022-11-21T16:04:42.726Z,15.63
2022-11-21T16:07:10.762Z,18.17
2022-11-21T16:09:39.073Z,15.48
2022-11-21T16:12:07.017Z,17.13
2022-11-21T16:14:34.577Z,17.17
2022-11-21T16:17:02.459Z,17.33
2022-11-21T16:19:30.350Z,15.90
2022-11-21T16:21:58.983Z,17.08
2022-11-21T16:24:27.192Z,17.17
2022-11-21T16:29:24.999Z,18.08
2022-11-21T16:31:55.863Z,15.93
2022-11-21T16:34:23.430Z,17.80
2022-11-21T16:36:51.656Z,16.83
2022-11-21T16:39:19.178Z,17.38
2022-11-21T16:41:49.136Z,18.88
2022-11-21T16:46:48.172Z,16.58
2022-11-21T16:49:16.068Z,15.98
2022-11-21T16:51:44.237Z,17.42
2022-11-21T16:54:11.864Z,18.30
2022-11-21T16:56:39.810Z,16.52
2022-11-21T16:59:07.307Z,17.92
2022-11-21T17:01:36.343Z,16.77
2022-11-21T17:04:04.794Z,15.70
2022-11-21T17:06:32.966Z,16.23
2022-11-21T17:09:02.064Z,15.90
2022-11-21T17:11:32.385Z,16.58
2022-11-21T17:14:04.637Z,14.93
2022-11-21T17:16:34.520Z,16.83
2022-11-21T17:19:03.385Z,16.35
2022-11-21T17:21:32.358Z,16.63
2022-11-21T17:24:00.697Z,15.63
2022-11-21T17:26:30.356Z,15.73
2022-11-21T17:29:01.152Z,16.63
2022-11-21T17:31:29.288Z,15.52
2022-11-21T17:33:58.084Z,16.45
2022-11-21T17:36:28.211Z,14.82
2022-11-21T17:38:56.730Z,14.98
2022-11-21T17:41:26.260Z,15.73
2022-11-21T17:43:56.260Z,15.02
2022-11-21T17:46:25.789Z,16.00
2022-11-21T17:48:57.666Z,16.35
2022-11-21T17:51:33.552Z,14.50
2022-11-21T17:54:02.038Z,14.77
2022-11-21T17:56:33.352Z,15.15
2022-11-21T17:59:01.810Z,15.35
2022-11-21T18:01:31.937Z,14.50
2022-11-21T18:04:13.339Z,14.52
2022-11-21T18:06:44.874Z,13.90
